sensor_id;sensor_type;location;lat;lon;timestamp;P1;durP1;ratioP1;P2;durP2;ratioP2
21543;SDS011;10933;50.754;11.508;2022-07-30T00:00:55;2.50;;;2.40;;
21543;SDS011;10933;50.754;11.508;2022-07-30T00:03:21;2.50;;;2.40;;
21543;SDS011;10933;50.754;11.508;2022-07-30T00:05:48;2.55;;;2.40;;
21543;SDS011;10933;50.754;11.508;2022-07-30T00:08:14;2.35;;;2.25;;
21543;SDS011;10933;50.754;11.508;2022-07-30T00:10:40;2.22;;;2.03;;
21543;SDS011;10933;50.754;11.508;2022-07-30T00:13:06;1.90;;;1.80;;
21543;SDS011;10933;50.754;11.508;2022-07-30T00:15:32;3.53;;;1.90;;
21543;SDS011;10933;50.754;11.508;2022-07-30T00:17:59;1.80;;;1.70;;
21543;SDS011;10933;50.754;11.508;2022-07-30T00:20:25;2.05;;;1.95;;
21543;SDS011;10933;50.754;11.508;2022-07-30T00:22:51;1.90;;;1.80;;
21543;SDS011;10933;50.754;11.508;2022-07-30T00:25:17;1.65;;;1.65;;
21543;SDS011;10933;50.754;11.508;2022-07-30T00:27:43;2.00;;;1.90;;
21543;SDS011;10933;50.754;11.508;2022-07-30T00:30:10;2.00;;;1.90;;
21543;SDS011;10933;50.754;11.508;2022-07-30T00:32:37;2.10;;;1.90;;
21543;SDS011;10933;50.754;11.508;2022-07-30T00:35:03;2.00;;;1.90;;
21543;SDS011;10933;50.754;11.508;2022-07-30T00:37:30;2.15;;;2.05;;
21543;SDS011;10933;50.754;11.508;2022-07-30T00:39:56;1.85;;;1.75;;
21543;SDS011;10933;50.754;11.508;2022-07-30T00:42:22;1.90;;;1.80;;
21543;SDS011;10933;50.754;11.508;2022-07-30T00:45:00;2.17;;;1.98;;
21543;SDS011;10933;50.754;11.508;2022-07-30T00:47:26;1.90;;;1.80;;
21543;SDS011;10933;50.754;11.508;2022-07-30T00:49:52;2.42;;;2.22;;
21543;SDS011;10933;50.754;11.508;2022-07-30T00:52:18;2.40;;;2.30;;
21543;SDS011;10933;50.754;11.508;2022-07-30T00:54:44;2.08;;;1.98;;
21543;SDS011;10933;50.754;11.508;2022-07-30T00:57:10;2.38;;;2.28;;
21543;SDS011;10933;50.754;11.508;2022-07-30T00:59:36;2.40;;;2.30;;
21543;SDS011;10933;50.754;11.508;2022-07-30T01:02:02;2.33;;;2.22;;
21543;SDS011;10933;50.754;11.508;2022-07-30T01:04:29;2.20;;;2.10;;
21543;SDS011;10933;50.754;11.508;2022-07-30T01:06:55;2.10;;;2.00;;
21543;SDS011;10933;50.754;11.508;2022-07-30T01:09:21;2.40;;;2.20;;
21543;SDS011;10933;50.754;11.508;2022-07-30T01:11:47;2.15;;;2.05;;
21543;SDS011;10933;50.754;11.508;2022-07-30T01:14:13;2.75;;;2.40;;
21543;SDS011;10933;50.754;11.508;2022-07-30T01:16:40;2.30;;;2.20;;
21543;SDS011;10933;50.754;11.508;2022-07-30T01:19:12;2.10;;;2.00;;
21543;SDS011;10933;50.754;11.508;2022-07-30T01:22:05;2.40;;;2.20;;
21543;SDS011;10933;50.754;11.508;2022-07-30T01:24:42;1.88;;;1.77;;
21543;SDS011;10933;50.754;11.508;2022-07-30T01:27:15;2.10;;;2.00;;
21543;SDS011;10933;50.754;11.508;2022-07-30T01:29:44;1.90;;;1.80;;
21543;SDS011;10933;50.754;11.508;2022-07-30T01:32:13;1.80;;;1.70;;
21543;SDS011;10933;50.754;11.508;2022-07-30T01:34:41;2.03;;;1.92;;
21543;SDS011;10933;50.754;11.508;2022-07-30T01:37:09;2.20;;;2.10;;
21543;SDS011;10933;50.754;11.508;2022-07-30T01:39:37;2.63;;;2.50;;
21543;SDS011;10933;50.754;11.508;2022-07-30T01:42:04;2.38;;;2.17;;
21543;SDS011;10933;50.754;11.508;2022-07-30T01:44:33;2.70;;;2.60;;
21543;SDS011;10933;50.754;11.508;2022-07-30T01:47:00;2.17;;;2.08;;
21543;SDS011;10933;50.754;11.508;2022-07-30T01:49:27;2.83;;;2.72;;
21543;SDS011;10933;50.754;11.508;2022-07-30T01:51:55;2.30;;;2.20;;
21543;SDS011;10933;50.754;11.508;2022-07-30T01:54:24;2.30;;;2.20;;
21543;SDS011;10933;50.754;11.508;2022-07-30T01:56:53;2.28;;;2.17;;
21543;SDS011;10933;50.754;11.508;2022-07-30T01:59:20;2.25;;;2.15;;
21543;SDS011;10933;50.754;11.508;2022-07-30T02:01:48;2.40;;;2.20;;
21543;SDS011;10933;50.754;11.508;2022-07-30T02:04:15;2.50;;;2.40;;
21543;SDS011;10933;50.754;11.508;2022-07-30T02:06:42;2.45;;;2.35;;
21543;SDS011;10933;50.754;11.508;2022-07-30T02:09:17;2.78;;;2.58;;
21543;SDS011;10933;50.754;11.508;2022-07-30T02:11:50;2.72;;;2.63;;
21543;SDS011;10933;50.754;11.508;2022-07-30T02:14:48;2.97;;;2.78;;
21543;SDS011;10933;50.754;11.508;2022-07-30T02:17:23;3.28;;;2.97;;
21543;SDS011;10933;50.754;11.508;2022-07-30T02:19:53;3.15;;;3.05;;
21543;SDS011;10933;50.754;11.508;2022-07-30T02:22:21;3.10;;;3.00;;
21543;SDS011;10933;50.754;11.508;2022-07-30T02:24:50;2.95;;;2.78;;
21543;SDS011;10933;50.754;11.508;2022-07-30T02:27:27;3.58;;;3.38;;
21543;SDS011;10933;50.754;11.508;2022-07-30T02:29:58;6.63;;;3.00;;
21543;SDS011;10933;50.754;11.508;2022-07-30T02:32:25;3.20;;;3.00;;
21543;SDS011;10933;50.754;11.508;2022-07-30T02:34:56;3.45;;;3.25;;
21543;SDS011;10933;50.754;11.508;2022-07-30T02:37:24;3.47;;;3.28;;
21543;SDS011;10933;50.754;11.508;2022-07-30T02:39:53;2.90;;;2.80;;
21543;SDS011;10933;50.754;11.508;2022-07-30T02:42:21;3.13;;;2.92;;
21543;SDS011;10933;50.754;11.508;2022-07-30T02:44:51;3.13;;;2.92;;
21543;SDS011;10933;50.754;11.508;2022-07-30T02:47:20;3.40;;;3.10;;
21543;SDS011;10933;50.754;11.508;2022-07-30T02:49:49;3.38;;;3.17;;
21543;SDS011;10933;50.754;11.508;2022-07-30T02:52:17;3.38;;;3.17;;
21543;SDS011;10933;50.754;11.508;2022-07-30T02:54:44;4.20;;;3.15;;
21543;SDS011;10933;50.754;11.508;2022-07-30T02:57:14;3.42;;;3.13;;
21543;SDS011;10933;50.754;11.508;2022-07-30T02:59:43;3.55;;;3.42;;
21543;SDS011;10933;50.754;11.508;2022-07-30T03:02:11;4.63;;;4.32;;
21543;SDS011;10933;50.754;11.508;2022-07-30T03:04:39;3.55;;;3.35;;
21543;SDS011;10933;50.754;11.508;2022-07-30T03:07:05;3.90;;;3.70;;
21543;SDS011;10933;50.754;11.508;2022-07-30T03:09:34;4.00;;;3.80;;
21543;SDS011;10933;50.754;11.508;2022-07-30T03:12:02;3.97;;;3.78;;
21543;SDS011;10933;50.754;11.508;2022-07-30T03:14:30;5.95;;;4.00;;
21543;SDS011;10933;50.754;11.508;2022-07-30T03:16:56;4.00;;;3.80;;
21543;SDS011;10933;50.754;11.508;2022-07-30T03:19:26;4.45;;;4.25;;
21543;SDS011;10933;50.754;11.508;2022-07-30T03:21:56;4.65;;;4.45;;
21543;SDS011;10933;50.754;11.508;2022-07-30T03:24:26;4.35;;;4.15;;
21543;SDS011;10933;50.754;11.508;2022-07-30T03:26:52;4.85;;;4.65;;
21543;SDS011;10933;50.754;11.508;2022-07-30T03:29:21;4.13;;;3.92;;
21543;SDS011;10933;50.754;11.508;2022-07-30T03:31:49;5.00;;;4.80;;
21543;SDS011;10933;50.754;11.508;2022-07-30T03:34:15;4.70;;;4.50;;
21543;SDS011;10933;50.754;11.508;2022-07-30T03:36:43;4.75;;;4.55;;
21543;SDS011;10933;50.754;11.508;2022-07-30T03:39:09;5.43;;;5.07;;
21543;SDS011;10933;50.754;11.508;2022-07-30T03:41:36;5.05;;;4.85;;
21543;SDS011;10933;50.754;11.508;2022-07-30T03:44:03;5.65;;;5.45;;
21543;SDS011;10933;50.754;11.508;2022-07-30T03:46:30;5.82;;;5.53;;
21543;SDS011;10933;50.754;11.508;2022-07-30T03:48:56;11.93;;;5.70;;
21543;SDS011;10933;50.754;11.508;2022-07-30T03:51:24;4.93;;;4.70;;
21543;SDS011;10933;50.754;11.508;2022-07-30T03:53:51;5.30;;;5.10;;
21543;SDS011;10933;50.754;11.508;2022-07-30T03:56:17;5.38;;;5.18;;
21543;SDS011;10933;50.754;11.508;2022-07-30T03:58:44;5.40;;;5.20;;
21543;SDS011;10933;50.754;11.508;2022-07-30T04:01:10;5.88;;;5.57;;
21543;SDS011;10933;50.754;11.508;2022-07-30T04:03:36;6.45;;;6.15;;
21543;SDS011;10933;50.754;11.508;2022-07-30T04:06:02;5.72;;;5.43;;
21543;SDS011;10933;50.754;11.508;2022-07-30T04:08:29;6.03;;;5.72;;
21543;SDS011;10933;50.754;11.508;2022-07-30T04:10:55;6.18;;;5.88;;
21543;SDS011;10933;50.754;11.508;2022-07-30T04:13:21;5.63;;;5.32;;
21543;SDS011;10933;50.754;11.508;2022-07-30T04:15:50;6.20;;;5.90;;
21543;SDS011;10933;50.754;11.508;2022-07-30T04:18:16;5.88;;;5.57;;
21543;SDS011;10933;50.754;11.508;2022-07-30T04:20:45;5.90;;;5.63;;
21543;SDS011;10933;50.754;11.508;2022-07-30T04:23:13;5.65;;;5.45;;
21543;SDS011;10933;50.754;11.508;2022-07-30T04:25:40;6.32;;;6.03;;
21543;SDS011;10933;50.754;11.508;2022-07-30T04:28:08;6.25;;;5.97;;
21543;SDS011;10933;50.754;11.508;2022-07-30T04:30:35;5.88;;;5.57;;
21543;SDS011;10933;50.754;11.508;2022-07-30T04:33:03;6.35;;;6.05;;
21543;SDS011;10933;50.754;11.508;2022-07-30T04:35:30;5.72;;;5.53;;
21543;SDS011;10933;50.754;11.508;2022-07-30T04:37:57;5.97;;;5.45;;
21543;SDS011;10933;50.754;11.508;2022-07-30T04:40:24;6.22;;;5.82;;
21543;SDS011;10933;50.754;11.508;2022-07-30T04:42:50;6.65;;;6.35;;
21543;SDS011;10933;50.754;11.508;2022-07-30T04:45:17;6.15;;;5.88;;
21543;SDS011;10933;50.754;11.508;2022-07-30T04:47:46;6.88;;;6.57;;
21543;SDS011;10933;50.754;11.508;2022-07-30T04:50:12;7.78;;;5.63;;
21543;SDS011;10933;50.754;11.508;2022-07-30T04:52:39;6.63;;;6.20;;
21543;SDS011;10933;50.754;11.508;2022-07-30T04:55:07;6.70;;;6.40;;
21543;SDS011;10933;50.754;11.508;2022-07-30T04:57:35;6.47;;;6.20;;
21543;SDS011;10933;50.754;11.508;2022-07-30T05:00:04;6.28;;;5.97;;
21543;SDS011;10933;50.754;11.508;2022-07-30T05:02:32;6.70;;;6.40;;
21543;SDS011;10933;50.754;11.508;2022-07-30T05:05:01;5.95;;;5.65;;
21543;SDS011;10933;50.754;11.508;2022-07-30T05:07:29;6.43;;;6.13;;
21543;SDS011;10933;50.754;11.508;2022-07-30T05:09:56;6.07;;;5.78;;
21543;SDS011;10933;50.754;11.508;2022-07-30T05:12:32;6.53;;;6.07;;
21543;SDS011;10933;50.754;11.508;2022-07-30T05:15:06;6.80;;;6.50;;
21543;SDS011;10933;50.754;11.508;2022-07-30T05:17:34;6.18;;;5.88;;
21543;SDS011;10933;50.754;11.508;2022-07-30T05:20:00;6.93;;;6.63;;
21543;SDS011;10933;50.754;11.508;2022-07-30T05:22:28;6.80;;;6.40;;
21543;SDS011;10933;50.754;11.508;2022-07-30T05:24:57;6.97;;;6.68;;
21543;SDS011;10933;50.754;11.508;2022-07-30T05:27:23;6.47;;;6.18;;
21543;SDS011;10933;50.754;11.508;2022-07-30T05:29:49;6.15;;;5.95;;
21543;SDS011;10933;50.754;11.508;2022-07-30T05:32:16;6.32;;;5.97;;
21543;SDS011;10933;50.754;11.508;2022-07-30T05:34:42;6.68;;;6.38;;
21543;SDS011;10933;50.754;11.508;2022-07-30T05:37:08;7.05;;;6.75;;
21543;SDS011;10933;50.754;11.508;2022-07-30T05:39:34;7.65;;;7.25;;
21543;SDS011;10933;50.754;11.508;2022-07-30T05:42:00;7.80;;;7.40;;
21543;SDS011;10933;50.754;11.508;2022-07-30T05:44:26;7.10;;;6.80;;
21543;SDS011;10933;50.754;11.508;2022-07-30T05:46:52;7.93;;;7.25;;
21543;SDS011;10933;50.754;11.508;2022-07-30T05:49:18;8.02;;;7.72;;
21543;SDS011;10933;50.754;11.508;2022-07-30T05:51:45;10.68;;;10.18;;
21543;SDS011;10933;50.754;11.508;2022-07-30T05:54:11;8.57;;;7.88;;
21543;SDS011;10933;50.754;11.508;2022-07-30T05:56:37;7.22;;;6.93;;
21543;SDS011;10933;50.754;11.508;2022-07-30T05:59:04;9.60;;;8.75;;
21543;SDS011;10933;50.754;11.508;2022-07-30T06:01:31;9.38;;;8.98;;
21543;SDS011;10933;50.754;11.508;2022-07-30T06:03:57;8.32;;;7.93;;
21543;SDS011;10933;50.754;11.508;2022-07-30T06:06:23;8.38;;;7.78;;
21543;SDS011;10933;50.754;11.508;2022-07-30T06:08:49;8.07;;;7.68;;
21543;SDS011;10933;50.754;11.508;2022-07-30T06:11:15;7.75;;;7.35;;
21543;SDS011;10933;50.754;11.508;2022-07-30T06:13:41;7.35;;;6.95;;
21543;SDS011;10933;50.754;11.508;2022-07-30T06:16:08;6.85;;;6.45;;
21543;SDS011;10933;50.754;11.508;2022-07-30T06:18:34;7.47;;;7.18;;
21543;SDS011;10933;50.754;11.508;2022-07-30T06:21:00;7.10;;;6.75;;
21543;SDS011;10933;50.754;11.508;2022-07-30T06:23:27;7.40;;;7.00;;
21543;SDS011;10933;50.754;11.508;2022-07-30T06:25:53;7.13;;;6.72;;
21543;SDS011;10933;50.754;11.508;2022-07-30T06:28:19;6.63;;;6.32;;
21543;SDS011;10933;50.754;11.508;2022-07-30T06:30:45;5.97;;;5.55;;
21543;SDS011;10933;50.754;11.508;2022-07-30T06:33:12;6.50;;;6.10;;
21543;SDS011;10933;50.754;11.508;2022-07-30T06:35:39;6.32;;;6.03;;
21543;SDS011;10933;50.754;11.508;2022-07-30T06:38:05;6.47;;;5.85;;
21543;SDS011;10933;50.754;11.508;2022-07-30T06:40:31;5.97;;;5.72;;
21543;SDS011;10933;50.754;11.508;2022-07-30T06:42:58;5.85;;;5.55;;
21543;SDS011;10933;50.754;11.508;2022-07-30T06:45:24;5.22;;;4.95;;
21543;SDS011;10933;50.754;11.508;2022-07-30T06:47:50;5.60;;;5.30;;
21543;SDS011;10933;50.754;11.508;2022-07-30T06:50:20;5.50;;;5.30;;
21543;SDS011;10933;50.754;11.508;2022-07-30T06:52:46;4.90;;;4.70;;
21543;SDS011;10933;50.754;11.508;2022-07-30T06:55:12;5.03;;;4.72;;
21543;SDS011;10933;50.754;11.508;2022-07-30T06:57:38;4.78;;;4.47;;
21543;SDS011;10933;50.754;11.508;2022-07-30T07:00:05;4.20;;;4.00;;
21543;SDS011;10933;50.754;11.508;2022-07-30T07:02:32;3.60;;;3.40;;
21543;SDS011;10933;50.754;11.508;2022-07-30T07:04:58;3.50;;;3.30;;
21543;SDS011;10933;50.754;11.508;2022-07-30T07:07:24;3.10;;;2.90;;
21543;SDS011;10933;50.754;11.508;2022-07-30T07:09:50;3.00;;;2.85;;
21543;SDS011;10933;50.754;11.508;2022-07-30T07:12:16;2.28;;;2.17;;
21543;SDS011;10933;50.754;11.508;2022-07-30T07:14:42;2.80;;;2.63;;
21543;SDS011;10933;50.754;11.508;2022-07-30T07:17:09;4.22;;;2.60;;
21543;SDS011;10933;50.754;11.508;2022-07-30T07:19:35;2.97;;;2.78;;
21543;SDS011;10933;50.754;11.508;2022-07-30T07:22:01;2.92;;;2.72;;
21543;SDS011;10933;50.754;11.508;2022-07-30T07:24:27;2.30;;;2.20;;
21543;SDS011;10933;50.754;11.508;2022-07-30T07:26:53;2.75;;;2.63;;
21543;SDS011;10933;50.754;11.508;2022-07-30T07:29:20;2.80;;;2.70;;
21543;SDS011;10933;50.754;11.508;2022-07-30T07:31:46;3.38;;;3.17;;
21543;SDS011;10933;50.754;11.508;2022-07-30T07:34:12;3.42;;;3.22;;
21543;SDS011;10933;50.754;11.508;2022-07-30T07:36:38;3.88;;;3.67;;
21543;SDS011;10933;50.754;11.508;2022-07-30T07:39:04;3.13;;;3.03;;
21543;SDS011;10933;50.754;11.508;2022-07-30T07:41:33;6.57;;;3.55;;
21543;SDS011;10933;50.754;11.508;2022-07-30T07:44:03;3.70;;;3.50;;
21543;SDS011;10933;50.754;11.508;2022-07-30T07:46:30;3.72;;;3.53;;
21543;SDS011;10933;50.754;11.508;2022-07-30T07:48:56;4.07;;;3.88;;
21543;SDS011;10933;50.754;11.508;2022-07-30T07:51:22;4.43;;;4.05;;
21543;SDS011;10933;50.754;11.508;2022-07-30T07:53:48;4.13;;;3.92;;
21543;SDS011;10933;50.754;11.508;2022-07-30T07:56:15;4.13;;;3.92;;
21543;SDS011;10933;50.754;11.508;2022-07-30T07:58:41;4.65;;;4.25;;
21543;SDS011;10933;50.754;11.508;2022-07-30T08:01:07;4.65;;;4.45;;
21543;SDS011;10933;50.754;11.508;2022-07-30T08:03:33;4.53;;;4.32;;
21543;SDS011;10933;50.754;11.508;2022-07-30T08:05:59;4.70;;;4.43;;
21543;SDS011;10933;50.754;11.508;2022-07-30T08:08:25;4.55;;;4.35;;
21543;SDS011;10933;50.754;11.508;2022-07-30T08:10:52;4.78;;;4.47;;
21543;SDS011;10933;50.754;11.508;2022-07-30T08:13:18;4.88;;;4.57;;
21543;SDS011;10933;50.754;11.508;2022-07-30T08:15:44;5.40;;;5.00;;
21543;SDS011;10933;50.754;11.508;2022-07-30T08:18:10;4.97;;;4.28;;
21543;SDS011;10933;50.754;11.508;2022-07-30T08:20:36;4.75;;;4.43;;
21543;SDS011;10933;50.754;11.508;2022-07-30T08:23:03;4.20;;;4.00;;
21543;SDS011;10933;50.754;11.508;2022-07-30T08:25:30;11.32;;;3.60;;
21543;SDS011;10933;50.754;11.508;2022-07-30T08:27:56;3.67;;;3.50;;
21543;SDS011;10933;50.754;11.508;2022-07-30T08:30:24;3.90;;;3.70;;
21543;SDS011;10933;50.754;11.508;2022-07-30T08:32:50;5.40;;;3.70;;
21543;SDS011;10933;50.754;11.508;2022-07-30T08:35:16;4.15;;;3.78;;
21543;SDS011;10933;50.754;11.508;2022-07-30T08:37:42;3.97;;;3.67;;
21543;SDS011;10933;50.754;11.508;2022-07-30T08:40:09;3.63;;;3.53;;
21543;SDS011;10933;50.754;11.508;2022-07-30T08:42:36;3.83;;;3.63;;
21543;SDS011;10933;50.754;11.508;2022-07-30T08:45:02;4.57;;;4.28;;
21543;SDS011;10933;50.754;11.508;2022-07-30T08:47:31;4.95;;;4.55;;
21543;SDS011;10933;50.754;11.508;2022-07-30T08:49:58;4.20;;;4.00;;
21543;SDS011;10933;50.754;11.508;2022-07-30T08:52:30;4.10;;;3.90;;
21543;SDS011;10933;50.754;11.508;2022-07-30T08:54:58;3.83;;;3.63;;
21543;SDS011;10933;50.754;11.508;2022-07-30T08:57:25;3.67;;;3.38;;
21543;SDS011;10933;50.754;11.508;2022-07-30T08:59:56;3.67;;;3.47;;
21543;SDS011;10933;50.754;11.508;2022-07-30T09:02:22;3.30;;;3.10;;
21543;SDS011;10933;50.754;11.508;2022-07-30T09:04:49;3.33;;;3.13;;
21543;SDS011;10933;50.754;11.508;2022-07-30T09:07:15;4.13;;;3.92;;
21543;SDS011;10933;50.754;11.508;2022-07-30T09:09:41;3.88;;;3.58;;
21543;SDS011;10933;50.754;11.508;2022-07-30T09:20:26;4.32;;;4.03;;
21543;SDS011;10933;50.754;11.508;2022-07-30T09:23:01;4.22;;;3.92;;
21543;SDS011;10933;50.754;11.508;2022-07-30T09:28:05;4.38;;;4.18;;
21543;SDS011;10933;50.754;11.508;2022-07-30T09:33:10;6.28;;;4.45;;
21543;SDS011;10933;50.754;11.508;2022-07-30T09:35:36;4.82;;;4.53;;
21543;SDS011;10933;50.754;11.508;2022-07-30T09:38:03;4.93;;;4.63;;
21543;SDS011;10933;50.754;11.508;2022-07-30T09:40:30;4.15;;;3.95;;
21543;SDS011;10933;50.754;11.508;2022-07-30T09:45:33;4.00;;;3.80;;
21543;SDS011;10933;50.754;11.508;2022-07-30T09:48:00;4.05;;;3.70;;
21543;SDS011;10933;50.754;11.508;2022-07-30T09:50:27;4.40;;;4.20;;
21543;SDS011;10933;50.754;11.508;2022-07-30T09:52:53;4.50;;;4.30;;
21543;SDS011;10933;50.754;11.508;2022-07-30T09:55:31;3.63;;;3.42;;
21543;SDS011;10933;50.754;11.508;2022-07-30T09:58:03;3.92;;;3.72;;
21543;SDS011;10933;50.754;11.508;2022-07-30T10:00:31;4.40;;;4.20;;
21543;SDS011;10933;50.754;11.508;2022-07-30T10:02:59;4.20;;;3.90;;
21543;SDS011;10933;50.754;11.508;2022-07-30T10:05:27;4.38;;;4.07;;
21543;SDS011;10933;50.754;11.508;2022-07-30T10:07:55;4.40;;;4.00;;
21543;SDS011;10933;50.754;11.508;2022-07-30T10:10:24;3.55;;;3.35;;
21543;SDS011;10933;50.754;11.508;2022-07-30T10:12:58;4.78;;;4.47;;
21543;SDS011;10933;50.754;11.508;2022-07-30T10:15:29;4.22;;;4.03;;
21543;SDS011;10933;50.754;11.508;2022-07-30T10:17:58;4.03;;;3.72;;
21543;SDS011;10933;50.754;11.508;2022-07-30T10:20:25;4.13;;;3.90;;
21543;SDS011;10933;50.754;11.508;2022-07-30T10:22:53;3.63;;;3.33;;
21543;SDS011;10933;50.754;11.508;2022-07-30T10:25:21;3.47;;;3.28;;
21543;SDS011;10933;50.754;11.508;2022-07-30T10:27:49;4.70;;;4.40;;
21543;SDS011;10933;50.754;11.508;2022-07-30T10:30:16;3.38;;;3.17;;
21543;SDS011;10933;50.754;11.508;2022-07-30T10:32:43;3.40;;;3.20;;
21543;SDS011;10933;50.754;11.508;2022-07-30T10:35:11;2.80;;;2.70;;
21543;SDS011;10933;50.754;11.508;2022-07-30T10:37:40;3.53;;;3.33;;
21543;SDS011;10933;50.754;11.508;2022-07-30T10:40:13;3.40;;;3.20;;
21543;SDS011;10933;50.754;11.508;2022-07-30T10:49:07;3.75;;;3.53;;
21543;SDS011;10933;50.754;11.508;2022-07-30T10:51:48;4.18;;;3.88;;
21543;SDS011;10933;50.754;11.508;2022-07-30T10:54:34;4.82;;;4.63;;
21543;SDS011;10933;50.754;11.508;2022-07-30T10:57:24;4.30;;;4.00;;
21543;SDS011;10933;50.754;11.508;2022-07-30T11:02:25;3.97;;;3.78;;
21543;SDS011;10933;50.754;11.508;2022-07-30T11:05:35;4.68;;;4.38;;
21543;SDS011;10933;50.754;11.508;2022-07-30T11:07:42;5.10;;;4.80;;
21543;SDS011;10933;50.754;11.508;2022-07-30T11:12:58;4.63;;;4.43;;
21543;SDS011;10933;50.754;11.508;2022-07-30T11:15:30;4.15;;;3.95;;
21543;SDS011;10933;50.754;11.508;2022-07-30T11:18:19;4.43;;;4.20;;
21543;SDS011;10933;50.754;11.508;2022-07-30T11:23:38;4.10;;;3.80;;
21543;SDS011;10933;50.754;11.508;2022-07-30T11:26:05;4.25;;;4.00;;
21543;SDS011;10933;50.754;11.508;2022-07-30T11:28:39;3.75;;;3.47;;
21543;SDS011;10933;50.754;11.508;2022-07-30T11:42:26;3.72;;;3.53;;
21543;SDS011;10933;50.754;11.508;2022-07-30T11:44:52;3.55;;;3.35;;
21543;SDS011;10933;50.754;11.508;2022-07-30T11:47:38;4.20;;;3.85;;
21543;SDS011;10933;50.754;11.508;2022-07-30T11:50:05;4.10;;;3.90;;
21543;SDS011;10933;50.754;11.508;2022-07-30T11:52:32;3.88;;;3.67;;
21543;SDS011;10933;50.754;11.508;2022-07-30T11:54:58;3.83;;;3.63;;
21543;SDS011;10933;50.754;11.508;2022-07-30T11:57:43;3.20;;;3.00;;
21543;SDS011;10933;50.754;11.508;2022-07-30T12:00:09;3.45;;;3.25;;
21543;SDS011;10933;50.754;11.508;2022-07-30T12:02:35;3.50;;;3.30;;
21543;SDS011;10933;50.754;11.508;2022-07-30T12:05:01;3.47;;;3.28;;
21543;SDS011;10933;50.754;11.508;2022-07-30T12:07:28;3.90;;;3.60;;
21543;SDS011;10933;50.754;11.508;2022-07-30T12:10:10;4.00;;;3.80;;
21543;SDS011;10933;50.754;11.508;2022-07-30T12:12:41;3.97;;;3.67;;
21543;SDS011;10933;50.754;11.508;2022-07-30T12:15:07;4.10;;;3.90;;
21543;SDS011;10933;50.754;11.508;2022-07-30T12:17:43;3.63;;;3.42;;
21543;SDS011;10933;50.754;11.508;2022-07-30T12:20:16;3.40;;;3.20;;
21543;SDS011;10933;50.754;11.508;2022-07-30T12:22:45;3.70;;;3.50;;
21543;SDS011;10933;50.754;11.508;2022-07-30T12:25:12;3.85;;;3.65;;
21543;SDS011;10933;50.754;11.508;2022-07-30T12:27:38;3.70;;;3.50;;
21543;SDS011;10933;50.754;11.508;2022-07-30T12:30:08;4.35;;;4.05;;
21543;SDS011;10933;50.754;11.508;2022-07-30T12:32:35;3.40;;;3.20;;
21543;SDS011;10933;50.754;11.508;2022-07-30T12:35:01;3.20;;;3.00;;
21543;SDS011;10933;50.754;11.508;2022-07-30T12:37:28;4.10;;;3.90;;
21543;SDS011;10933;50.754;11.508;2022-07-30T12:40:08;3.50;;;3.30;;
21543;SDS011;10933;50.754;11.508;2022-07-30T12:42:37;4.40;;;4.03;;
21543;SDS011;10933;50.754;11.508;2022-07-30T12:45:30;4.90;;;4.28;;
21543;SDS011;10933;50.754;11.508;2022-07-30T12:48:00;4.68;;;4.35;;
21543;SDS011;10933;50.754;11.508;2022-07-30T12:50:26;4.72;;;4.43;;
21543;SDS011;10933;50.754;11.508;2022-07-30T12:52:53;3.80;;;3.60;;
21543;SDS011;10933;50.754;11.508;2022-07-30T12:55:29;3.97;;;3.75;;
21543;SDS011;10933;50.754;11.508;2022-07-30T12:58:06;4.00;;;3.65;;
21543;SDS011;10933;50.754;11.508;2022-07-30T13:00:44;4.05;;;3.38;;
21543;SDS011;10933;50.754;11.508;2022-07-30T13:03:21;3.97;;;3.67;;
21543;SDS011;10933;50.754;11.508;2022-07-30T13:05:50;4.22;;;4.03;;
21543;SDS011;10933;50.754;11.508;2022-07-30T13:08:18;4.10;;;3.90;;
21543;SDS011;10933;50.754;11.508;2022-07-30T13:10:54;4.28;;;4.00;;
21543;SDS011;10933;50.754;11.508;2022-07-30T13:13:23;3.65;;;3.45;;
21543;SDS011;10933;50.754;11.508;2022-07-30T13:16:00;4.00;;;3.70;;
21543;SDS011;10933;50.754;11.508;2022-07-30T13:18:27;4.32;;;3.92;;
21543;SDS011;10933;50.754;11.508;2022-07-30T13:20:55;5.22;;;3.28;;
21543;SDS011;10933;50.754;11.508;2022-07-30T13:23:22;3.22;;;3.03;;
21543;SDS011;10933;50.754;11.508;2022-07-30T13:25:49;3.88;;;3.58;;
21543;SDS011;10933;50.754;11.508;2022-07-30T13:28:15;3.17;;;2.97;;
21543;SDS011;10933;50.754;11.508;2022-07-30T13:30:42;3.70;;;3.50;;
21543;SDS011;10933;50.754;11.508;2022-07-30T13:33:09;3.20;;;3.00;;
21543;SDS011;10933;50.754;11.508;2022-07-30T13:35:35;4.10;;;3.90;;
21543;SDS011;10933;50.754;11.508;2022-07-30T13:38:02;3.35;;;3.20;;
21543;SDS011;10933;50.754;11.508;2022-07-30T13:40:30;3.90;;;3.53;;
21543;SDS011;10933;50.754;11.508;2022-07-30T13:42:57;3.80;;;3.60;;
21543;SDS011;10933;50.754;11.508;2022-07-30T13:45:24;3.33;;;3.13;;
21543;SDS011;10933;50.754;11.508;2022-07-30T13:47:51;3.75;;;3.55;;
21543;SDS011;10933;50.754;11.508;2022-07-30T13:50:17;3.60;;;3.40;;
21543;SDS011;10933;50.754;11.508;2022-07-30T13:52:43;3.47;;;3.28;;
21543;SDS011;10933;50.754;11.508;2022-07-30T13:55:10;3.58;;;3.38;;
21543;SDS011;10933;50.754;11.508;2022-07-30T13:57:37;3.80;;;3.60;;
21543;SDS011;10933;50.754;11.508;2022-07-30T14:00:03;4.10;;;3.80;;
21543;SDS011;10933;50.754;11.508;2022-07-30T14:02:31;3.70;;;3.50;;
21543;SDS011;10933;50.754;11.508;2022-07-30T14:04:58;3.35;;;3.15;;
21543;SDS011;10933;50.754;11.508;2022-07-30T14:07:24;4.05;;;3.70;;
21543;SDS011;10933;50.754;11.508;2022-07-30T14:09:50;3.95;;;3.75;;
21543;SDS011;10933;50.754;11.508;2022-07-30T14:12:16;3.95;;;3.75;;
21543;SDS011;10933;50.754;11.508;2022-07-30T14:14:43;3.55;;;3.33;;
21543;SDS011;10933;50.754;11.508;2022-07-30T14:17:09;3.55;;;3.35;;
21543;SDS011;10933;50.754;11.508;2022-07-30T14:19:35;3.92;;;3.60;;
21543;SDS011;10933;50.754;11.508;2022-07-30T14:22:01;3.83;;;3.60;;
21543;SDS011;10933;50.754;11.508;2022-07-30T14:24:27;3.85;;;3.60;;
21543;SDS011;10933;50.754;11.508;2022-07-30T14:26:53;3.63;;;3.33;;
21543;SDS011;10933;50.754;11.508;2022-07-30T14:29:19;3.33;;;3.13;;
21543;SDS011;10933;50.754;11.508;2022-07-30T14:31:45;3.10;;;2.90;;
21543;SDS011;10933;50.754;11.508;2022-07-30T14:34:11;3.28;;;3.08;;
21543;SDS011;10933;50.754;11.508;2022-07-30T14:36:38;3.33;;;3.08;;
21543;SDS011;10933;50.754;11.508;2022-07-30T14:39:04;3.72;;;3.00;;
21543;SDS011;10933;50.754;11.508;2022-07-30T14:41:30;3.85;;;3.65;;
21543;SDS011;10933;50.754;11.508;2022-07-30T14:43:56;3.10;;;2.90;;
21543;SDS011;10933;50.754;11.508;2022-07-30T14:46:22;3.50;;;3.30;;
21543;SDS011;10933;50.754;11.508;2022-07-30T14:48:48;4.28;;;3.97;;
21543;SDS011;10933;50.754;11.508;2022-07-30T14:51:15;3.95;;;3.65;;
21543;SDS011;10933;50.754;11.508;2022-07-30T14:53:41;4.53;;;3.22;;
21543;SDS011;10933;50.754;11.508;2022-07-30T14:56:07;5.10;;;4.70;;
21543;SDS011;10933;50.754;11.508;2022-07-30T14:58:33;4.50;;;4.20;;
21543;SDS011;10933;50.754;11.508;2022-07-30T15:00:59;5.43;;;4.05;;
21543;SDS011;10933;50.754;11.508;2022-07-30T15:03:25;6.57;;;4.00;;
21543;SDS011;10933;50.754;11.508;2022-07-30T15:05:52;4.28;;;4.07;;
21543;SDS011;10933;50.754;11.508;2022-07-30T15:08:18;4.10;;;3.88;;
21543;SDS011;10933;50.754;11.508;2022-07-30T15:10:45;4.47;;;4.18;;
21543;SDS011;10933;50.754;11.508;2022-07-30T15:13:11;3.95;;;3.75;;
21543;SDS011;10933;50.754;11.508;2022-07-30T15:15:37;3.92;;;3.72;;
21543;SDS011;10933;50.754;11.508;2022-07-30T15:18:03;4.07;;;3.78;;
21543;SDS011;10933;50.754;11.508;2022-07-30T15:20:29;4.53;;;4.28;;